Time;durP1;ratioP1;P1;durP2;ratioP2;P2;SDS_P1;SDS_P2;PMS_P1;PMS_P2;Temp;Humidity;BMP_temperature;BMP_pressure;BME280_temperature;BME280_humidity;BME280_pressure;Samples;Min_cycle;Max_cycle;Signal;HPM_P1;HPM_P2
2023/05/26 00:01:28;;;;;;;1999.90;999.90;;;14.50;99.90;;;;;;5054652;28;20187;-71
2023/05/26 00:03:53;;;;;;;1999.90;999.90;;;14.50;99.90;;;;;;5055252;28;20240;-71
2023/05/26 00:06:20;;;;;;;1999.90;999.90;;;14.40;99.90;;;;;;5054848;28;20458;-71
2023/05/26 00:08:47;;;;;;;1999.90;999.90;;;14.30;99.90;;;;;;5054868;28;20163;-71
2023/05/26 00:11:12;;;;;;;1999.90;999.90;;;14.20;99.90;;;;;;5054472;28;20426;-71
2023/05/26 00:13:38;;;;;;;1999.90;999.90;;;14.20;99.90;;;;;;5054759;28;20406;-71
2023/05/26 00:16:04;;;;;;;1999.90;999.90;;;14.10;99.90;;;;;;5054717;28;20202;-70
2023/05/26 00:18:29;;;;;;;1999.90;999.90;;;14.00;99.90;;;;;;5054703;28;20597;-70
2023/05/26 00:20:55;;;;;;;1999.90;999.90;;;13.90;99.90;;;;;;5054468;28;20270;-70
2023/05/26 00:23:21;;;;;;;1999.90;999.90;;;13.90;99.90;;;;;;5054571;28;20171;-70
2023/05/26 00:25:49;;;;;;;1999.90;999.90;;;13.80;99.90;;;;;;5054475;28;20929;-70
2023/05/26 00:28:14;;;;;;;1999.90;999.90;;;13.70;99.90;;;;;;5054447;28;20445;-70
2023/05/26 00:30:40;;;;;;;1999.90;999.90;;;13.70;99.90;;;;;;5054357;28;20449;-70
2023/05/26 00:33:05;;;;;;;1999.90;999.90;;;13.60;99.90;;;;;;5054441;28;20163;-70
2023/05/26 00:35:31;;;;;;;1999.90;999.90;;;13.50;99.90;;;;;;5054348;28;20197;-70
2023/05/26 00:37:56;;;;;;;1999.90;999.90;;;13.50;99.90;;;;;;5054314;28;20164;-70
2023/05/26 00:40:22;;;;;;;1999.90;999.90;;;13.50;99.90;;;;;;5054216;28;20196;-70
2023/05/26 00:42:48;;;;;;;1999.90;999.90;;;13.40;99.90;;;;;;5053866;28;20227;-70
2023/05/26 00:45:13;;;;;;;1999.90;999.90;;;13.40;99.90;;;;;;5054183;28;20183;-70
2023/05/26 00:47:39;;;;;;;1999.90;999.90;;;13.30;99.90;;;;;;5054068;28;20210;-70
2023/05/26 00:50:06;;;;;;;1999.90;999.90;;;13.30;99.90;;;;;;5054187;28;20253;-70
2023/05/26 00:52:33;;;;;;;1999.90;999.90;;;13.30;99.90;;;;;;5053746;28;20174;-70
2023/05/26 00:54:59;;;;;;;1999.90;999.90;;;13.20;99.90;;;;;;5053964;28;20406;-70
2023/05/26 00:57:27;;;;;;;1999.90;999.90;;;13.20;99.90;;;;;;5053994;28;21132;-70
2023/05/26 00:59:55;;;;;;;1999.90;999.90;;;13.20;99.90;;;;;;5053898;28;20456;-70
2023/05/26 01:02:22;;;;;;;1999.90;999.90;;;13.10;99.90;;;;;;5053394;28;20408;-70
2023/05/26 01:04:52;;;;;;;1999.90;999.90;;;13.10;99.90;;;;;;5053182;28;20401;-70
2023/05/26 01:07:21;;;;;;;1999.90;999.90;;;13.00;99.90;;;;;;5053624;28;20988;-70
2023/05/26 01:09:48;;;;;;;1999.90;999.90;;;12.90;99.90;;;;;;5053667;28;20482;-70
2023/05/26 01:12:28;;;;;;;1999.90;999.90;;;12.90;99.90;;;;;;5053349;28;20412;-70
2023/05/26 01:15:10;;;;;;;1999.90;999.90;;;12.80;99.90;;;;;;5053650;28;20432;-70
2023/05/26 01:17:44;;;;;;;1999.90;999.90;;;12.80;99.90;;;;;;5053614;28;20417;-70
2023/05/26 01:20:38;;;;;;;1999.90;999.90;;;12.80;99.90;;;;;;5053593;28;20926;-70
2023/05/26 01:23:22;;;;;;;1999.90;999.90;;;12.80;99.90;;;;;;5053434;28;20408;-70
2023/05/26 01:26:21;;;;;;;1999.90;999.90;;;12.70;99.90;;;;;;5053620;28;20778;-70
2023/05/26 01:28:51;;;;;;;1999.90;999.90;;;12.60;99.90;;;;;;5038510;28;20578;-70
2023/05/26 01:31:17;;;;;;;1999.90;999.90;;;12.60;99.90;;;;;;5053098;28;20420;-70
2023/05/26 01:33:43;;;;;;;1999.90;999.90;;;12.60;99.90;;;;;;5053247;28;20401;-69
2023/05/26 01:36:08;;;;;;;1999.90;999.90;;;12.60;99.90;;;;;;5053244;28;20503;-69
2023/05/26 01:38:35;;;;;;;1999.90;999.90;;;12.50;99.90;;;;;;5053214;28;20673;-69
2023/05/26 01:41:10;;;;;;;1999.90;999.90;;;12.50;99.90;;;;;;5052977;28;20348;-69
2023/05/26 01:43:41;;;;;;;1999.90;999.90;;;12.50;99.90;;;;;;5053093;28;20432;-69
2023/05/26 01:46:26;;;;;;;1999.90;999.90;;;12.50;99.90;;;;;;5053029;28;20455;-69
2023/05/26 01:48:56;;;;;;;1999.90;999.90;;;12.50;99.90;;;;;;5053005;28;20400;-69
2023/05/26 01:51:23;;;;;;;1999.90;999.90;;;12.40;99.90;;;;;;5052712;28;20466;-69
2023/05/26 01:53:53;;;;;;;1999.90;999.90;;;12.40;99.90;;;;;;5052912;28;20407;-69
2023/05/26 01:56:20;;;;;;;1999.90;999.90;;;12.40;99.90;;;;;;5053117;28;20758;-69
2023/05/26 01:58:47;;;;;;;1999.90;999.90;;;12.40;99.90;;;;;;5052667;28;20996;-69
2023/05/26 02:01:12;;;;;;;1999.90;999.90;;;12.30;99.90;;;;;;5052556;28;20452;-69
2023/05/26 02:03:38;;;;;;;1999.90;999.90;;;12.30;99.90;;;;;;5052645;28;20400;-69
2023/05/26 02:06:03;;;;;;;1999.90;999.90;;;12.30;99.90;;;;;;5052667;28;20787;-69
2023/05/26 02:08:29;;;;;;;1999.90;999.90;;;12.20;99.90;;;;;;5052697;28;20161;-69
2023/05/26 02:10:55;;;;;;;1999.90;999.90;;;12.20;99.90;;;;;;5052644;28;20190;-69
2023/05/26 02:13:20;;;;;;;1999.90;999.90;;;12.20;99.90;;;;;;5052524;28;20526;-69
2023/05/26 02:15:46;;;;;;;1999.90;999.90;;;12.20;99.90;;;;;;5052698;28;20689;-69
2023/05/26 02:18:11;;;;;;;1999.90;999.90;;;12.00;99.90;;;;;;5052504;28;20192;-69
2023/05/26 02:20:37;;;;;;;1999.90;999.90;;;11.90;99.90;;;;;;5052677;28;20191;-69
2023/05/26 02:23:03;;;;;;;1999.90;999.90;;;11.90;99.90;;;;;;5052276;28;20323;-69
2023/05/26 02:25:28;;;;;;;1999.90;999.90;;;11.90;99.90;;;;;;5052323;28;20202;-69
2023/05/26 02:27:54;;;;;;;1999.90;999.90;;;11.90;99.90;;;;;;5052202;28;20200;-69
2023/05/26 02:30:19;;;;;;;1999.90;999.90;;;11.80;99.90;;;;;;5052219;28;20263;-69
2023/05/26 02:32:45;;;;;;;1999.90;999.90;;;11.80;99.90;;;;;;5052062;28;20179;-69
2023/05/26 02:35:11;;;;;;;1999.90;999.90;;;11.80;99.90;;;;;;5052532;28;20229;-69
2023/05/26 02:37:36;;;;;;;1999.90;999.90;;;11.80;99.90;;;;;;5052180;28;20642;-69
2023/05/26 02:40:04;;;;;;;1999.90;999.90;;;11.70;99.90;;;;;;5051888;28;20207;-69
2023/05/26 02:42:30;;;;;;;1999.90;999.90;;;11.70;99.90;;;;;;5051865;28;20169;-69
2023/05/26 02:44:55;;;;;;;1999.90;999.90;;;11.70;99.90;;;;;;5052048;28;20414;-69
2023/05/26 02:47:21;;;;;;;1999.90;999.90;;;11.70;99.90;;;;;;5051992;28;20200;-69
2023/05/26 02:49:47;;;;;;;1999.90;999.90;;;11.70;99.90;;;;;;5052212;28;20194;-69
2023/05/26 02:52:12;;;;;;;1999.90;999.90;;;11.70;99.90;;;;;;5051798;28;20170;-69
2023/05/26 02:54:38;;;;;;;1999.90;999.90;;;11.60;99.90;;;;;;5051929;28;20177;-69
2023/05/26 02:57:03;;;;;;;1999.90;999.90;;;11.60;99.90;;;;;;5051872;28;20177;-69
2023/05/26 02:59:29;;;;;;;1999.90;999.90;;;11.50;99.90;;;;;;5051935;28;20595;-69
2023/05/26 03:01:55;;;;;;;1999.90;999.90;;;11.40;99.90;;;;;;5051934;28;20183;-69
2023/05/26 03:04:20;;;;;;;1999.90;999.90;;;11.40;99.90;;;;;;5051843;28;20211;-69
2023/05/26 03:06:46;;;;;;;1999.90;999.90;;;11.40;99.90;;;;;;5051720;28;20251;-69
2023/05/26 03:09:11;;;;;;;1999.90;999.90;;;11.40;99.90;;;;;;5051623;28;20183;-69
2023/05/26 03:11:37;;;;;;;1999.90;999.90;;;11.20;99.90;;;;;;5051557;28;20195;-69
2023/05/26 03:14:02;;;;;;;1999.90;999.90;;;11.20;99.90;;;;;;5052254;28;20542;-69
2023/05/26 03:16:28;;;;;;;1999.90;999.90;;;11.20;99.90;;;;;;5051762;28;20263;-69
2023/05/26 03:18:54;;;;;;;1999.90;999.90;;;11.20;99.90;;;;;;5051717;28;20172;-69
2023/05/26 03:21:20;;;;;;;1999.90;999.90;;;11.10;99.90;;;;;;5051350;28;20762;-69
2023/05/26 03:23:45;;;;;;;1999.90;999.90;;;11.00;99.90;;;;;;5051601;28;20173;-68
2023/05/26 03:26:11;;;;;;;1999.90;999.90;;;11.00;99.90;;;;;;5052066;28;20249;-69
2023/05/26 03:28:37;;;;;;;1999.90;999.90;;;11.00;99.90;;;;;;5055825;28;20716;-69
2023/05/26 03:31:03;;;;;;;1999.90;999.90;;;11.00;99.90;;;;;;5055337;28;20275;-69
2023/05/26 03:33:31;;;;;;;1999.90;999.90;;;11.00;99.90;;;;;;5055534;28;20645;-69
2023/05/26 03:36:00;;;;;;;1999.90;999.90;;;10.90;99.90;;;;;;5055554;28;20494;-69
2023/05/26 03:38:26;;;;;;;1999.90;999.90;;;10.90;99.90;;;;;;5055655;28;20414;-69
2023/05/26 03:40:52;;;;;;;1999.90;999.90;;;10.90;99.90;;;;;;5055128;28;20851;-69
2023/05/26 03:43:17;;;;;;;1999.90;999.90;;;10.90;99.90;;;;;;5055421;28;20489;-69
2023/05/26 03:45:43;;;;;;;1999.90;999.90;;;10.90;99.90;;;;;;5055236;28;20176;-69
2023/05/26 03:48:12;;;;;;;1999.90;999.90;;;10.90;99.90;;;;;;5055294;28;20179;-69
2023/05/26 03:50:38;;;;;;;1999.90;999.90;;;10.90;99.90;;;;;;5055105;28;20275;-69
2023/05/26 03:53:04;;;;;;;1999.90;999.90;;;10.90;99.90;;;;;;5055082;28;20418;-69
2023/05/26 03:55:33;;;;;;;1999.90;999.90;;;10.80;99.90;;;;;;5055368;28;20434;-69
2023/05/26 03:57:59;;;;;;;1999.90;999.90;;;10.90;99.90;;;;;;5055185;28;20443;-69
2023/05/26 04:00:28;;;;;;;1999.90;999.90;;;10.80;99.90;;;;;;5054950;28;20513;-68
2023/05/26 04:02:54;;;;;;;1999.90;999.90;;;10.80;99.90;;;;;;5054762;28;20416;-69
2023/05/26 04:05:20;;;;;;;1999.90;999.90;;;10.80;99.90;;;;;;5054847;28;20407;-69
2023/05/26 04:07:46;;;;;;;1999.90;999.90;;;10.90;99.90;;;;;;5054841;28;20966;-69
2023/05/26 04:10:11;;;;;;;1999.90;999.90;;;10.90;99.90;;;;;;5054914;28;20184;-69
2023/05/26 04:12:37;;;;;;;1999.90;999.90;;;10.90;99.90;;;;;;5054655;28;20900;-70
2023/05/26 04:15:04;;;;;;;1999.90;999.90;;;10.90;99.90;;;;;;5054753;28;20167;-70
2023/05/26 04:17:29;;;;;;;1999.90;999.90;;;10.80;99.90;;;;;;5054757;28;20418;-70
2023/05/26 04:19:55;;;;;;;1999.90;999.90;;;10.80;99.90;;;;;;5054495;28;20432;-70
2023/05/26 04:22:20;;;;;;;1999.90;999.90;;;10.90;99.90;;;;;;5054446;28;20226;-70
2023/05/26 04:24:46;;;;;;;1999.90;999.90;;;10.90;99.90;;;;;;5054579;28;20187;-70
2023/05/26 04:27:12;;;;;;;1999.90;999.90;;;10.80;99.90;;;;;;5054625;28;20203;-70
2023/05/26 04:29:38;;;;;;;1999.90;999.90;;;10.80;99.90;;;;;;5054560;28;20195;-70
2023/05/26 04:32:04;;;;;;;1999.90;999.90;;;10.80;99.90;;;;;;5054091;28;20210;-70
2023/05/26 04:34:30;;;;;;;1999.90;999.90;;;10.90;99.90;;;;;;5054329;28;20497;-70
2023/05/26 04:37:03;;;;;;;1999.90;999.90;;;10.90;99.90;;;;;;5054392;28;20485;-70
2023/05/26 04:39:28;;;;;;;1999.90;999.90;;;10.80;99.90;;;;;;5053165;28;20219;-70
2023/05/26 04:41:54;;;;;;;1999.90;999.90;;;10.90;99.90;;;;;;5053902;28;20775;-70
2023/05/26 04:44:19;;;;;;;1999.90;999.90;;;10.90;99.90;;;;;;5054181;28;20168;-70
2023/05/26 04:46:45;;;;;;;1999.90;999.90;;;10.90;99.90;;;;;;5054052;28;20248;-70
2023/05/26 04:49:12;;;;;;;1999.90;999.90;;;10.90;99.90;;;;;;5054011;28;20168;-70
2023/05/26 04:51:38;;;;;;;1999.90;999.90;;;10.90;99.90;;;;;;5053804;28;20908;-70
2023/05/26 04:54:03;;;;;;;1999.90;999.90;;;10.90;99.90;;;;;;5053970;28;20459;-70
2023/05/26 04:56:29;;;;;;;1999.90;999.90;;;10.90;99.90;;;;;;5054023;28;20501;-70
2023/05/26 04:58:56;;;;;;;1999.90;999.90;;;10.90;99.90;;;;;;5053987;28;20222;-70
2023/05/26 05:01:21;;;;;;;1999.90;999.90;;;11.00;99.90;;;;;;5053709;28;20218;-69
2023/05/26 05:03:47;;;;;;;1999.90;999.90;;;11.00;99.90;;;;;;5054107;28;20414;-69
2023/05/26 05:06:12;;;;;;;1999.90;999.90;;;11.00;99.90;;;;;;5053726;28;20350;-69
2023/05/26 05:08:38;;;;;;;1999.90;999.90;;;11.00;99.90;;;;;;5053783;28;20176;-69
2023/05/26 05:11:04;;;;;;;1999.90;999.90;;;11.10;99.90;;;;;;5053493;28;20192;-69
2023/05/26 05:13:32;;;;;;;1999.90;999.90;;;11.10;99.90;;;;;;5053766;28;20176;-69
2023/05/26 05:15:58;;;;;;;1999.90;999.90;;;11.10;99.90;;;;;;5053967;28;20433;-69
2023/05/26 05:18:24;;;;;;;1999.90;999.90;;;11.20;99.90;;;;;;5053855;28;20480;-69
2023/05/26 05:20:50;;;;;;;1999.90;999.90;;;11.20;99.90;;;;;;5053784;28;20440;-69
2023/05/26 05:23:15;;;;;;;1999.90;999.90;;;11.20;99.90;;;;;;5053293;28;20801;-69
2023/05/26 05:25:42;;;;;;;1999.90;999.90;;;11.20;99.90;;;;;;5053379;28;20192;-69
2023/05/26 05:28:10;;;;;;;1999.90;999.90;;;11.30;99.90;;;;;;5053423;28;20217;-69
2023/05/26 05:30:35;;;;;;;1999.90;999.90;;;11.30;99.90;;;;;;5053252;28;20513;-68
2023/05/26 05:33:01;;;;;;;1999.90;999.90;;;11.30;99.90;;;;;;5053020;28;20493;-69
2023/05/26 05:35:26;;;;;;;1999.90;999.90;;;11.30;99.90;;;;;;5053266;28;20246;-69
2023/05/26 05:37:58;;;;;;;1999.90;999.90;;;11.40;99.90;;;;;;5053220;28;20203;-69
2023/05/26 05:40:24;;;;;;;1999.90;999.90;;;11.40;99.90;;;;;;5053080;28;20213;-69
2023/05/26 05:42:50;;;;;;;1999.90;999.90;;;11.50;99.90;;;;;;5052881;28;20411;-69
2023/05/26 05:45:16;;;;;;;1999.90;999.90;;;11.60;99.90;;;;;;5052969;28;20403;-69
2023/05/26 05:47:41;;;;;;;1999.90;999.90;;;11.60;99.90;;;;;;5052956;28;20252;-69
2023/05/26 05:50:07;;;;;;;1999.90;999.90;;;11.70;99.90;;;;;;5052523;28;20254;-69
2023/05/26 05:52:33;;;;;;;1999.90;999.90;;;11.70;99.90;;;;;;5052705;28;20173;-69
2023/05/26 05:54:59;;;;;;;1999.90;999.90;;;11.80;99.90;;;;;;5052848;28;20913;-69
2023/05/26 05:57:24;;;;;;;1999.90;999.90;;;11.90;99.90;;;;;;5052901;28;20180;-69
2023/05/26 05:59:50;;;;;;;1999.90;999.90;;;12.00;99.90;;;;;;5052646;28;20261;-69
2023/05/26 06:02:15;;;;;;;1999.90;999.90;;;12.10;99.90;;;;;;5052462;28;20171;-69
2023/05/26 06:04:41;;;;;;;1999.90;999.90;;;12.20;99.90;;;;;;5052724;28;20173;-69
2023/05/26 06:07:07;;;;;;;1999.90;999.90;;;12.20;99.90;;;;;;5052558;28;20250;-70
2023/05/26 06:09:33;;;;;;;1999.90;999.90;;;12.30;99.90;;;;;;5052490;28;20236;-70
2023/05/26 06:12:00;;;;;;;1999.90;999.90;;;12.40;99.90;;;;;;5052383;28;20579;-70
2023/05/26 06:14:25;;;;;;;1999.90;999.90;;;12.50;99.90;;;;;;5052511;28;20455;-70
2023/05/26 06:16:51;;;;;;;1999.90;999.90;;;12.40;99.90;;;;;;5052507;28;20403;-70
2023/05/26 06:19:16;;;;;;;1999.90;999.90;;;12.30;99.90;;;;;;5052361;28;20587;-70
2023/05/26 06:21:42;;;;;;;1999.90;999.90;;;12.30;99.90;;;;;;5051914;28;20171;-70
2023/05/26 06:24:07;;;;;;;1999.90;999.90;;;12.40;99.90;;;;;;5052362;28;20239;-70
2023/05/26 06:26:33;;;;;;;1999.90;999.90;;;12.50;99.90;;;;;;5052254;28;20260;-70
2023/05/26 06:29:00;;;;;;;1999.90;999.90;;;12.60;99.90;;;;;;5052170;28;20251;-70
2023/05/26 06:31:25;;;;;;;1999.90;999.90;;;12.60;99.90;;;;;;5052064;28;20425;-70
2023/05/26 06:33:52;;;;;;;1999.90;999.90;;;12.70;99.90;;;;;;5052224;28;20189;-70
2023/05/26 06:36:17;;;;;;;1999.90;999.90;;;12.80;99.90;;;;;;5052227;28;20199;-70
2023/05/26 06:38:43;;;;;;;1999.90;999.90;;;12.90;99.90;;;;;;5052151;28;20973;-70
2023/05/26 06:41:08;;;;;;;1999.90;999.90;;;13.00;99.90;;;;;;5051757;28;20561;-70
2023/05/26 06:43:34;;;;;;;1999.90;999.90;;;13.10;99.90;;;;;;5052048;28;20205;-70
2023/05/26 06:46:00;;;;;;;1999.90;999.90;;;13.20;99.90;;;;;;5051963;28;20168;-70
2023/05/26 06:48:25;;;;;;;1999.90;999.90;;;13.30;99.90;;;;;;5051983;28;20167;-70
2023/05/26 06:50:53;;;;;;;1999.90;999.90;;;13.30;99.90;;;;;;5051809;28;20192;-70
2023/05/26 06:53:18;;;;;;;1999.90;999.90;;;13.40;99.90;;;;;;5051926;28;20186;-70
2023/05/26 06:55:44;;;;;;;1999.90;999.90;;;13.40;99.90;;;;;;5051934;28;20410;-70
2023/05/26 06:58:09;;;;;;;1999.90;999.90;;;13.50;99.90;;;;;;5052132;28;20276;-70
2023/05/26 07:00:35;;;;;;;1999.90;999.90;;;13.50;99.90;;;;;;5051320;28;20200;-70
2023/05/26 07:03:01;;;;;;;1999.90;999.90;;;13.60;99.90;;;;;;5051494;28;20593;-70
2023/05/26 07:05:26;;;;;;;1999.90;999.90;;;13.50;99.90;;;;;;5051762;28;20221;-70
2023/05/26 07:07:52;;;;;;;1999.90;999.90;;;13.20;99.90;;;;;;5051772;28;20689;-70
2023/05/26 07:10:17;;;;;;;1999.90;999.90;;;13.20;99.90;;;;;;5051682;28;20602;-70
2023/05/26 07:12:43;;;;;;;1999.90;999.90;;;13.10;99.90;;;;;;5051465;28;20593;-70
2023/05/26 07:15:09;;;;;;;1999.90;999.90;;;13.00;99.90;;;;;;5051759;28;20249;-70
2023/05/26 07:17:34;;;;;;;1999.90;999.90;;;13.30;99.90;;;;;;5051757;28;20170;-70
2023/05/26 07:20:00;;;;;;;1999.90;999.90;;;13.50;99.90;;;;;;5051663;28;20432;-70
2023/05/26 07:22:26;;;;;;;1999.90;999.90;;;13.70;99.90;;;;;;5051400;28;20174;-70
2023/05/26 07:24:51;;;;;;;1999.90;999.90;;;14.00;99.90;;;;;;5051677;28;20648;-70
2023/05/26 07:27:17;;;;;;;1999.90;999.90;;;13.90;99.90;;;;;;5051624;28;20219;-70
2023/05/26 07:29:42;;;;;;;1999.90;999.90;;;13.90;99.90;;;;;;5051729;28;20280;-70
2023/05/26 07:32:08;;;;;;;1999.90;999.90;;;14.20;99.90;;;;;;5051372;28;20167;-70
2023/05/26 07:34:33;;;;;;;1999.90;999.90;;;14.40;99.90;;;;;;5051561;28;20652;-70
2023/05/26 07:36:59;;;;;;;1999.90;999.90;;;14.60;99.90;;;;;;5051563;28;20172;-70
2023/05/26 07:39:24;;;;;;;1999.90;999.90;;;14.60;99.90;;;;;;5051318;28;20187;-70
2023/05/26 07:41:50;;;;;;;1999.90;999.90;;;14.70;99.90;;;;;;5051174;28;20551;-70
2023/05/26 07:44:16;;;;;;;1999.90;999.90;;;14.80;99.90;;;;;;5051730;28;20178;-70
2023/05/26 07:46:41;;;;;;;1999.90;999.90;;;14.80;99.90;;;;;;5051272;28;20200;-70
2023/05/26 07:49:07;;;;;;;1999.90;999.90;;;14.90;99.90;;;;;;5051528;28;20632;-70
2023/05/26 07:51:32;;;;;;;1999.90;999.90;;;15.00;99.90;;;;;;5051030;28;20245;-70
2023/05/26 07:53:58;;;;;;;1999.90;999.90;;;15.10;99.90;;;;;;5051416;28;20693;-70
2023/05/26 07:56:23;;;;;;;1999.90;999.90;;;14.50;99.90;;;;;;5051289;28;20184;-70
2023/05/26 07:58:49;;;;;;;1999.90;999.90;;;14.50;99.90;;;;;;5051592;28;20176;-70
2023/05/26 08:01:15;;;;;;;1999.90;999.90;;;14.20;99.90;;;;;;5051057;28;20195;-70
2023/05/26 08:03:40;;;;;;;1999.90;999.90;;;14.40;99.90;;;;;;5051250;28;20931;-70
2023/05/26 08:06:07;;;;;;;1999.90;999.90;;;14.60;99.90;;;;;;5051162;28;20210;-70
2023/05/26 08:08:32;;;;;;;1999.90;999.90;;;14.60;99.90;;;;;;5051349;28;20238;-70
2023/05/26 08:10:58;;;;;;;1999.90;999.90;;;14.60;99.90;;;;;;5050875;28;20416;-70
2023/05/26 08:13:23;;;;;;;1999.90;999.90;;;14.90;99.90;;;;;;5053438;28;20173;-70
2023/05/26 08:15:49;;;;;;;1999.90;999.90;;;15.20;99.90;;;;;;5054812;28;20256;-70
2023/05/26 08:18:15;;;;;;;1999.90;999.90;;;15.30;99.90;;;;;;5054661;28;20183;-70
2023/05/26 08:20:41;;;;;;;1999.90;999.90;;;15.40;99.90;;;;;;5054668;28;20195;-70
2023/05/26 08:23:06;;;;;;;1999.90;999.90;;;15.20;99.90;;;;;;5054417;28;20435;-70
2023/05/26 08:25:32;;;;;;;1999.90;999.90;;;15.40;99.90;;;;;;5054529;28;20621;-70
2023/05/26 08:27:57;;;;;;;1999.90;999.90;;;15.70;99.90;;;;;;5054487;28;20278;-70
2023/05/26 08:30:23;;;;;;;1999.90;999.90;;;15.90;99.90;;;;;;5054486;28;20200;-70
2023/05/26 08:32:49;;;;;;;1999.90;999.90;;;16.20;99.90;;;;;;5054148;28;20632;-70
2023/05/26 08:35:14;;;;;;;1999.90;999.90;;;16.30;99.90;;;;;;5054351;28;20198;-70
2023/05/26 08:37:40;;;;;;;1999.90;999.90;;;16.40;99.90;;;;;;5054274;28;20219;-70
2023/05/26 08:40:06;;;;;;;1999.90;999.90;;;16.40;99.90;;;;;;5054150;28;20267;-70
2023/05/26 08:42:43;;;;;;;1999.90;999.90;;;16.20;99.90;;;;;;5053937;28;20184;-70
2023/05/26 08:45:09;;;;;;;1999.90;999.90;;;16.20;99.90;;;;;;5054316;28;20411;-70
2023/05/26 08:47:35;;;;;;;1999.90;999.90;;;16.30;99.90;;;;;;5054069;28;20568;-70
2023/05/26 08:50:04;;;;;;;1999.90;999.90;;;16.40;99.90;;;;;;5054071;28;20497;-70
2023/05/26 08:52:31;;;;;;;1999.90;999.90;;;16.60;99.90;;;;;;5053796;28;20908;-70
2023/05/26 08:54:57;;;;;;;1999.90;999.90;;;16.80;99.90;;;;;;5053971;28;20399;-70
2023/05/26 08:57:23;;;;;;;1999.90;999.90;;;16.60;99.90;;;;;;5053984;28;20420;-70
2023/05/26 08:59:49;;;;;;;1999.90;999.90;;;16.70;99.90;;;;;;5053878;28;20249;-70
2023/05/26 09:02:17;;;;;;;1999.90;999.90;;;16.80;99.90;;;;;;5054008;28;20909;-70
2023/05/26 09:04:42;;;;;;;1999.90;999.90;;;16.30;99.90;;;;;;5053948;28;20223;-70
2023/05/26 09:07:09;;;;;;;1999.90;999.90;;;16.60;99.90;;;;;;5053808;28;20488;-70
2023/05/26 09:09:35;;;;;;;1999.90;999.90;;;16.90;99.90;;;;;;5053878;28;20199;-70
2023/05/26 09:12:02;;;;;;;1999.90;999.90;;;17.10;99.90;;;;;;5053678;28;20417;-70
2023/05/26 09:14:27;;;;;;;1999.90;999.90;;;17.10;99.90;;;;;;5054312;28;20411;-71
2023/05/26 09:16:58;;;;;;;1999.90;999.90;;;17.00;99.90;;;;;;5053704;28;20502;-71
2023/05/26 09:19:26;;;;;;;1999.90;999.90;;;16.90;99.90;;;;;;5053609;28;20678;-71
2023/05/26 09:21:52;;;;;;;1999.90;999.90;;;16.60;99.90;;;;;;5053232;28;20500;-71
2023/05/26 09:24:22;;;;;;;1999.90;999.90;;;16.10;99.90;;;;;;5052757;28;20417;-71
2023/05/26 09:26:49;;;;;;;1999.90;999.90;;;15.90;99.90;;;;;;5053413;28;20966;-71
2023/05/26 09:29:16;;;;;;;1999.90;999.90;;;16.10;99.90;;;;;;5053517;28;20410;-71
2023/05/26 09:31:43;;;;;;;1999.90;999.90;;;15.90;99.90;;;;;;5053017;28;20493;-71
2023/05/26 09:34:10;;;;;;;1999.90;999.90;;;16.30;99.90;;;;;;5053378;28;20561;-71
2023/05/26 09:36:36;;;;;;;1999.90;999.90;;;16.40;99.90;;;;;;5053085;28;20413;-71
2023/05/26 09:39:07;;;;;;;1999.90;999.90;;;16.60;99.90;;;;;;5053248;28;20428;-71
2023/05/26 09:41:40;;;;;;;1999.90;999.90;;;16.70;99.90;;;;;;5052837;28;20999;-71
2023/05/26 09:44:18;;;;;;;1999.90;999.90;;;16.80;99.90;;;;;;5053109;28;20427;-71
2023/05/26 09:46:45;;;;;;;1999.90;999.90;;;17.10;99.90;;;;;;5052956;28;20540;-69
2023/05/26 09:49:14;;;;;;;1999.90;999.90;;;17.20;99.90;;;;;;5052877;28;20407;-70
2023/05/26 09:51:41;;;;;;;1999.90;999.90;;;17.40;99.90;;;;;;5052881;28;20404;-70
2023/05/26 09:54:11;;;;;;;1999.90;999.90;;;17.80;99.90;;;;;;5052908;28;20400;-69
2023/05/26 09:56:48;;;;;;;1999.90;999.90;;;17.90;99.90;;;;;;5052996;28;20776;-70
2023/05/26 09:59:16;;;;;;;1999.90;999.90;;;17.60;99.90;;;;;;5052820;28;20410;-70
2023/05/26 10:01:43;;;;;;;1999.90;999.90;;;17.70;99.90;;;;;;5052371;28;20495;-70
2023/05/26 10:04:09;;;;;;;1999.90;999.90;;;17.70;99.90;;;;;;5052696;28;20416;-70
2023/05/26 10:06:38;;;;;;;1999.90;999.90;;;17.90;99.90;;;;;;5052765;28;20818;-70
2023/05/26 10:09:06;;;;;;;1999.90;999.90;;;17.90;99.90;;;;;;5052995;28;20406;-70
2023/05/26 10:11:36;;;;;;;1999.90;999.90;;;18.30;99.90;;;;;;5052244;28;20459;-70
2023/05/26 10:14:02;;;;;;;1999.90;999.90;;;18.40;99.90;;;;;;5052493;28;20412;-69
2023/05/26 10:16:29;;;;;;;1999.90;999.90;;;18.50;99.90;;;;;;5052468;28;20411;-69
2023/05/26 10:18:54;;;;;;;1999.90;999.90;;;18.50;99.90;;;;;;5052628;28;20439;-69
2023/05/26 10:21:26;;;;;;;1999.90;999.90;;;18.50;99.90;;;;;;5052052;28;20433;-70
2023/05/26 10:24:08;;;;;;;1999.90;999.90;;;18.40;99.90;;;;;;5052446;28;20162;-69
2023/05/26 10:26:44;;;;;;;1999.90;999.90;;;18.70;99.90;;;;;;5052269;28;20967;-70
2023/05/26 10:29:16;;;;;;;1999.90;999.90;;;18.80;99.90;;;;;;5052194;28;20413;-70
2023/05/26 10:31:42;;;;;;;1999.90;999.90;;;19.10;99.90;;;;;;5052046;28;20492;-70
2023/05/26 10:34:36;;;;;;;1999.90;999.90;;;19.40;99.90;;;;;;5052416;28;20942;-70
2023/05/26 10:37:11;;;;;;;1999.90;999.90;;;19.70;99.90;;;;;;5052017;28;20250;-70
2023/05/26 10:39:37;;;;;;;1999.90;999.90;;;19.50;99.90;;;;;;5052007;28;20516;-70
2023/05/26 10:42:17;;;;;;;1999.90;999.90;;;19.80;99.90;;;;;;5051906;28;20421;-70
2023/05/26 10:44:50;;;;;;;1999.90;999.90;;;19.50;99.90;;;;;;5052114;28;20183;-70
2023/05/26 10:47:17;;;;;;;1999.90;999.90;;;19.80;99.90;;;;;;5051940;28;20454;-70
2023/05/26 10:49:56;;;;;;;1999.90;999.90;;;20.00;99.90;;;;;;5051878;28;20422;-70
2023/05/26 10:52:21;;;;;;;1999.90;999.90;;;19.90;99.90;;;;;;5051928;28;20990;-69
2023/05/26 10:54:50;;;;;;;1999.90;999.90;;;20.20;99.90;;;;;;5051906;28;20485;-70
2023/05/26 10:57:33;;;;;;;1999.90;999.90;;;20.40;99.90;;;;;;5051969;28;20169;-70
2023/05/26 11:00:18;;;;;;;1999.90;999.90;;;20.40;99.90;;;;;;5051730;28;20819;-70
2023/05/26 11:02:44;;;;;;;1999.90;999.90;;;20.40;99.90;;;;;;5051725;28;20414;-69
2023/05/26 11:05:32;;;;;;;1999.90;999.90;;;20.60;99.90;;;;;;5051751;28;20876;-70
2023/05/26 11:07:58;;;;;;;1999.90;999.90;;;20.90;99.90;;;;;;5051751;28;20198;-70
2023/05/26 11:10:23;;;;;;;1999.90;999.90;;;21.10;99.90;;;;;;5051695;28;20481;-69
2023/05/26 11:12:54;;;;;;;1999.90;999.90;;;21.30;99.90;;;;;;5051401;28;20417;-70
2023/05/26 11:15:33;;;;;;;1999.90;999.90;;;20.90;99.90;;;;;;5051857;28;20180;-70
2023/05/26 11:18:08;;;;;;;1999.90;999.90;;;20.60;99.90;;;;;;5051751;28;20423;-70
2023/05/26 11:20:34;;;;;;;1999.90;999.90;;;20.80;99.90;;;;;;5051564;28;20410;-70
2023/05/26 11:23:00;;;;;;;1999.90;999.90;;;21.30;99.90;;;;;;5051336;28;20375;-70
2023/05/26 11:25:27;;;;;;;1999.90;999.90;;;21.50;99.90;;;;;;5051414;28;20442;-70
2023/05/26 11:27:52;;;;;;;1999.90;999.90;;;21.70;97.90;;;;;;5051398;28;20791;-70
2023/05/26 11:30:19;;;;;;;1999.90;999.90;;;21.80;96.00;;;;;;5051629;28;20478;-70
2023/05/26 11:32:46;;;;;;;1999.90;999.90;;;22.00;97.60;;;;;;5051307;28;20225;-70
2023/05/26 11:35:21;;;;;;;1999.90;999.90;;;22.00;93.10;;;;;;5051596;28;20886;-70
2023/05/26 11:37:47;;;;;;;1999.90;999.90;;;22.00;94.50;;;;;;5051621;28;20448;-70
2023/05/26 11:40:12;;;;;;;1999.90;999.90;;;22.10;92.80;;;;;;5051292;28;20477;-70
2023/05/26 11:42:38;;;;;;;1999.90;999.90;;;22.20;92.90;;;;;;5051196;28;20179;-70
2023/05/26 11:45:04;;;;;;;1999.90;999.90;;;22.60;93.10;;;;;;5051364;28;20638;-70
2023/05/26 11:47:30;;;;;;;1999.90;999.90;;;22.70;90.30;;;;;;5052378;28;20203;-70
2023/05/26 11:50:06;;;;;;;1999.90;999.90;;;22.60;86.90;;;;;;5055083;28;20205;-70
2023/05/26 11:52:32;;;;;;;1999.90;999.90;;;21.80;85.80;;;;;;5055189;28;20427;-70
2023/05/26 11:54:57;;;;;;;1999.90;999.90;;;21.40;88.70;;;;;;5055134;28;20483;-70
2023/05/26 11:57:33;;;;;;;1999.90;999.90;;;21.60;92.80;;;;;;5055181;28;20646;-69
2023/05/26 11:59:59;;;;;;;1999.90;999.90;;;22.00;91.20;;;;;;5054992;28;20209;-70